Terminal Aerodrome Forecast
Issued by NWS

Home | Current Version | Previous Version | Text Only | Print | Product List | Glossary On
Versions: 1 2 3 4 5 6 7 8 9 10 11 12
844
FTUS41 KPBZ 231723
TAFHLG
TAF
KHLG 231723Z 2318/2418 14010G18KT P6SM SCT250
     FM240000 14008KT P6SM BKN100
     FM240900 10007KT P6SM -SHRA OVC070
     FM241500 11010KT 5SM -SHRA OVC015=

USA.gov is the U.S. government's official web portal to all federal, state and local government web resources and services.